sensor_id;sensor_type;location;lat;lon;timestamp;temperature;humidity
38910;DHT22;24676;51.360;12.354;2023-04-28T00:00:01;7.00;94.00
38910;DHT22;24676;51.360;12.354;2023-04-28T00:02:49;7.00;94.40
38910;DHT22;24676;51.360;12.354;2023-04-28T00:05:33;6.90;95.00
38910;DHT22;24676;51.360;12.354;2023-04-28T00:08:17;6.80;96.00
38910;DHT22;24676;51.360;12.354;2023-04-28T00:11:02;6.70;96.50
38910;DHT22;24676;51.360;12.354;2023-04-28T00:13:46;6.60;97.80
38910;DHT22;24676;51.360;12.354;2023-04-28T00:16:30;6.50;98.30
38910;DHT22;24676;51.360;12.354;2023-04-28T00:19:14;6.50;99.00
38910;DHT22;24676;51.360;12.354;2023-04-28T00:21:59;6.40;99.90
38910;DHT22;24676;51.360;12.354;2023-04-28T00:24:43;6.40;99.90
38910;DHT22;24676;51.360;12.354;2023-04-28T00:27:27;6.30;99.90
38910;DHT22;24676;51.360;12.354;2023-04-28T00:30:12;6.30;99.90
38910;DHT22;24676;51.360;12.354;2023-04-28T00:32:56;6.20;99.90
38910;DHT22;24676;51.360;12.354;2023-04-28T00:35:40;6.20;99.90
38910;DHT22;24676;51.360;12.354;2023-04-28T00:38:25;6.10;99.90
38910;DHT22;24676;51.360;12.354;2023-04-28T00:41:09;6.10;99.90
38910;DHT22;24676;51.360;12.354;2023-04-28T00:43:54;6.00;99.90
38910;DHT22;24676;51.360;12.354;2023-04-28T00:46:39;6.00;99.90
38910;DHT22;24676;51.360;12.354;2023-04-28T00:49:24;5.90;99.90
38910;DHT22;24676;51.360;12.354;2023-04-28T00:52:09;5.90;99.90
38910;DHT22;24676;51.360;12.354;2023-04-28T00:54:53;5.90;99.90
38910;DHT22;24676;51.360;12.354;2023-04-28T00:57:38;5.90;99.90
38910;DHT22;24676;51.360;12.354;2023-04-28T01:00:22;5.80;99.90
38910;DHT22;24676;51.360;12.354;2023-04-28T01:03:06;5.80;99.90
38910;DHT22;24676;51.360;12.354;2023-04-28T01:05:51;5.80;99.90
38910;DHT22;24676;51.360;12.354;2023-04-28T01:08:37;5.80;99.90
38910;DHT22;24676;51.360;12.354;2023-04-28T01:11:21;5.70;99.90
38910;DHT22;24676;51.360;12.354;2023-04-28T01:14:06;5.70;99.90
38910;DHT22;24676;51.360;12.354;2023-04-28T01:16:50;5.80;99.90
38910;DHT22;24676;51.360;12.354;2023-04-28T01:19:36;5.70;99.90
38910;DHT22;24676;51.360;12.354;2023-04-28T01:22:21;5.80;99.90
38910;DHT22;24676;51.360;12.354;2023-04-28T01:25:05;5.80;99.90
38910;DHT22;24676;51.360;12.354;2023-04-28T01:27:49;5.80;99.90
38910;DHT22;24676;51.360;12.354;2023-04-28T01:30:35;5.80;99.90
38910;DHT22;24676;51.360;12.354;2023-04-28T01:33:20;5.80;99.90
38910;DHT22;24676;51.360;12.354;2023-04-28T01:36:04;5.80;99.90
38910;DHT22;24676;51.360;12.354;2023-04-28T01:38:49;5.90;99.90
38910;DHT22;24676;51.360;12.354;2023-04-28T01:41:34;5.90;99.90
38910;DHT22;24676;51.360;12.354;2023-04-28T01:44:18;5.90;99.90
38910;DHT22;24676;51.360;12.354;2023-04-28T01:47:03;6.00;99.90
38910;DHT22;24676;51.360;12.354;2023-04-28T01:49:47;6.00;99.90
38910;DHT22;24676;51.360;12.354;2023-04-28T01:52:32;6.10;99.90
38910;DHT22;24676;51.360;12.354;2023-04-28T01:55:16;6.10;99.90
38910;DHT22;24676;51.360;12.354;2023-04-28T01:58:01;6.20;99.90
38910;DHT22;24676;51.360;12.354;2023-04-28T02:00:46;6.30;99.90
38910;DHT22;24676;51.360;12.354;2023-04-28T02:03:30;6.30;99.90
38910;DHT22;24676;51.360;12.354;2023-04-28T02:06:14;6.30;99.90
38910;DHT22;24676;51.360;12.354;2023-04-28T02:08:59;6.40;99.90
38910;DHT22;24676;51.360;12.354;2023-04-28T02:11:43;6.40;99.90
38910;DHT22;24676;51.360;12.354;2023-04-28T02:14:28;6.40;99.90
38910;DHT22;24676;51.360;12.354;2023-04-28T02:17:15;6.40;99.90
38910;DHT22;24676;51.360;12.354;2023-04-28T02:19:59;6.30;99.90
38910;DHT22;24676;51.360;12.354;2023-04-28T02:22:43;6.30;99.90
38910;DHT22;24676;51.360;12.354;2023-04-28T02:25:28;6.30;99.90
38910;DHT22;24676;51.360;12.354;2023-04-28T02:28:12;6.30;99.90
38910;DHT22;24676;51.360;12.354;2023-04-28T02:31:08;6.30;99.90
38910;DHT22;24676;51.360;12.354;2023-04-28T02:33:52;6.30;99.90
38910;DHT22;24676;51.360;12.354;2023-04-28T02:36:38;6.40;99.90
38910;DHT22;24676;51.360;12.354;2023-04-28T02:39:22;6.30;99.90
38910;DHT22;24676;51.360;12.354;2023-04-28T02:42:09;6.30;99.90
38910;DHT22;24676;51.360;12.354;2023-04-28T02:44:53;6.30;99.90
38910;DHT22;24676;51.360;12.354;2023-04-28T02:47:38;6.30;99.90
38910;DHT22;24676;51.360;12.354;2023-04-28T02:50:22;6.30;99.90
38910;DHT22;24676;51.360;12.354;2023-04-28T02:53:06;6.40;99.90
38910;DHT22;24676;51.360;12.354;2023-04-28T02:55:51;6.40;99.90
38910;DHT22;24676;51.360;12.354;2023-04-28T02:58:35;6.50;99.90
38910;DHT22;24676;51.360;12.354;2023-04-28T03:01:20;6.50;99.90
38910;DHT22;24676;51.360;12.354;2023-04-28T03:04:04;6.50;99.90
38910;DHT22;24676;51.360;12.354;2023-04-28T03:06:48;6.60;99.90
38910;DHT22;24676;51.360;12.354;2023-04-28T03:09:33;6.60;99.90
38910;DHT22;24676;51.360;12.354;2023-04-28T03:12:17;6.60;99.90
38910;DHT22;24676;51.360;12.354;2023-04-28T03:15:02;6.60;99.90
38910;DHT22;24676;51.360;12.354;2023-04-28T03:17:47;6.60;99.90
38910;DHT22;24676;51.360;12.354;2023-04-28T03:20:31;6.70;99.90
38910;DHT22;24676;51.360;12.354;2023-04-28T03:23:15;6.70;99.90
38910;DHT22;24676;51.360;12.354;2023-04-28T03:25:59;6.70;99.90
38910;DHT22;24676;51.360;12.354;2023-04-28T03:28:44;6.70;99.90
38910;DHT22;24676;51.360;12.354;2023-04-28T03:31:28;6.70;99.90
38910;DHT22;24676;51.360;12.354;2023-04-28T03:34:12;6.70;99.90
38910;DHT22;24676;51.360;12.354;2023-04-28T03:36:57;6.60;99.90
38910;DHT22;24676;51.360;12.354;2023-04-28T03:39:41;6.60;99.90
38910;DHT22;24676;51.360;12.354;2023-04-28T03:42:25;6.60;99.90
38910;DHT22;24676;51.360;12.354;2023-04-28T03:45:10;6.60;99.90
38910;DHT22;24676;51.360;12.354;2023-04-28T03:47:54;6.60;99.90
38910;DHT22;24676;51.360;12.354;2023-04-28T03:50:38;6.60;99.90
38910;DHT22;24676;51.360;12.354;2023-04-28T03:53:24;6.60;99.90
38910;DHT22;24676;51.360;12.354;2023-04-28T03:56:09;6.60;99.90
38910;DHT22;24676;51.360;12.354;2023-04-28T03:58:53;6.60;99.90
38910;DHT22;24676;51.360;12.354;2023-04-28T04:01:38;6.60;99.90
38910;DHT22;24676;51.360;12.354;2023-04-28T04:04:22;6.50;99.90
38910;DHT22;24676;51.360;12.354;2023-04-28T04:07:07;6.50;99.90
38910;DHT22;24676;51.360;12.354;2023-04-28T04:09:51;6.50;99.90
38910;DHT22;24676;51.360;12.354;2023-04-28T04:12:35;6.50;99.90
38910;DHT22;24676;51.360;12.354;2023-04-28T04:15:20;6.60;99.90
38910;DHT22;24676;51.360;12.354;2023-04-28T04:18:04;6.60;99.90
38910;DHT22;24676;51.360;12.354;2023-04-28T04:20:49;6.60;99.90
38910;DHT22;24676;51.360;12.354;2023-04-28T04:23:33;6.70;99.90
38910;DHT22;24676;51.360;12.354;2023-04-28T04:26:17;6.80;99.90
38910;DHT22;24676;51.360;12.354;2023-04-28T04:29:01;6.90;99.90
38910;DHT22;24676;51.360;12.354;2023-04-28T04:31:46;7.00;99.90
38910;DHT22;24676;51.360;12.354;2023-04-28T04:34:48;7.00;99.90
38910;DHT22;24676;51.360;12.354;2023-04-28T04:37:33;7.10;99.90
38910;DHT22;24676;51.360;12.354;2023-04-28T04:40:17;7.20;99.90
38910;DHT22;24676;51.360;12.354;2023-04-28T04:43:01;7.20;99.90
38910;DHT22;24676;51.360;12.354;2023-04-28T04:45:45;7.30;99.90
38910;DHT22;24676;51.360;12.354;2023-04-28T04:48:29;7.40;99.90
38910;DHT22;24676;51.360;12.354;2023-04-28T04:51:13;7.40;99.90
38910;DHT22;24676;51.360;12.354;2023-04-28T04:53:58;7.40;99.90
38910;DHT22;24676;51.360;12.354;2023-04-28T04:56:42;7.50;99.90
38910;DHT22;24676;51.360;12.354;2023-04-28T04:59:26;7.50;99.90
38910;DHT22;24676;51.360;12.354;2023-04-28T05:02:11;7.50;99.90
38910;DHT22;24676;51.360;12.354;2023-04-28T05:04:55;7.60;99.50
38910;DHT22;24676;51.360;12.354;2023-04-28T05:07:39;7.70;98.50
38910;DHT22;24676;51.360;12.354;2023-04-28T05:10:23;7.80;98.30
38910;DHT22;24676;51.360;12.354;2023-04-28T05:13:07;7.90;97.40
38910;DHT22;24676;51.360;12.354;2023-04-28T05:15:52;8.10;97.50
38910;DHT22;24676;51.360;12.354;2023-04-28T05:18:36;8.10;95.50
38910;DHT22;24676;51.360;12.354;2023-04-28T05:21:20;8.20;94.20
38910;DHT22;24676;51.360;12.354;2023-04-28T05:24:05;8.30;96.10
38910;DHT22;24676;51.360;12.354;2023-04-28T05:26:50;8.50;93.50
38910;DHT22;24676;51.360;12.354;2023-04-28T05:29:35;8.60;92.80
38910;DHT22;24676;51.360;12.354;2023-04-28T05:32:19;8.80;93.10
38910;DHT22;24676;51.360;12.354;2023-04-28T05:35:04;9.10;90.50
38910;DHT22;24676;51.360;12.354;2023-04-28T05:37:49;9.30;87.40
38910;DHT22;24676;51.360;12.354;2023-04-28T05:40:33;9.50;82.60
38910;DHT22;24676;51.360;12.354;2023-04-28T05:43:17;9.60;79.30
38910;DHT22;24676;51.360;12.354;2023-04-28T05:46:02;9.80;78.40
38910;DHT22;24676;51.360;12.354;2023-04-28T05:48:46;10.00;75.50
38910;DHT22;24676;51.360;12.354;2023-04-28T05:51:30;10.10;73.30
38910;DHT22;24676;51.360;12.354;2023-04-28T05:54:14;10.10;73.00
38910;DHT22;24676;51.360;12.354;2023-04-28T05:56:58;10.30;70.90
38910;DHT22;24676;51.360;12.354;2023-04-28T05:59:42;10.50;69.90
38910;DHT22;24676;51.360;12.354;2023-04-28T06:02:27;10.90;68.50
38910;DHT22;24676;51.360;12.354;2023-04-28T06:05:11;11.40;65.50
38910;DHT22;24676;51.360;12.354;2023-04-28T06:07:55;12.30;61.70
38910;DHT22;24676;51.360;12.354;2023-04-28T06:10:39;14.60;55.10
38910;DHT22;24676;51.360;12.354;2023-04-28T06:13:24;16.60;46.90
38910;DHT22;24676;51.360;12.354;2023-04-28T06:16:08;16.50;45.20
38910;DHT22;24676;51.360;12.354;2023-04-28T06:18:52;16.40;45.00
38910;DHT22;24676;51.360;12.354;2023-04-28T06:21:37;16.10;44.90
38910;DHT22;24676;51.360;12.354;2023-04-28T06:24:21;15.50;46.20
38910;DHT22;24676;51.360;12.354;2023-04-28T06:27:05;15.90;46.70
38910;DHT22;24676;51.360;12.354;2023-04-28T06:29:50;17.10;44.60
38910;DHT22;24676;51.360;12.354;2023-04-28T06:32:34;17.80;42.20
38910;DHT22;24676;51.360;12.354;2023-04-28T06:35:19;17.70;41.50
38910;DHT22;24676;51.360;12.354;2023-04-28T06:38:05;17.40;42.10
38910;DHT22;24676;51.360;12.354;2023-04-28T06:40:49;16.70;43.30
38910;DHT22;24676;51.360;12.354;2023-04-28T06:43:34;15.80;45.20
38910;DHT22;24676;51.360;12.354;2023-04-28T06:46:18;15.20;46.80
38910;DHT22;24676;51.360;12.354;2023-04-28T06:49:02;14.60;48.70
38910;DHT22;24676;51.360;12.354;2023-04-28T06:51:47;14.00;50.30
38910;DHT22;24676;51.360;12.354;2023-04-28T06:54:31;13.70;51.50
38910;DHT22;24676;51.360;12.354;2023-04-28T06:57:15;13.60;52.20
38910;DHT22;24676;51.360;12.354;2023-04-28T07:00:00;13.70;52.80
38910;DHT22;24676;51.360;12.354;2023-04-28T07:02:45;13.50;53.30
38910;DHT22;24676;51.360;12.354;2023-04-28T07:05:29;13.40;54.00
38910;DHT22;24676;51.360;12.354;2023-04-28T07:08:14;13.30;54.10
38910;DHT22;24676;51.360;12.354;2023-04-28T07:11:00;13.20;54.30
38910;DHT22;24676;51.360;12.354;2023-04-28T07:13:47;13.20;54.60
38910;DHT22;24676;51.360;12.354;2023-04-28T07:16:33;13.20;54.60
38910;DHT22;24676;51.360;12.354;2023-04-28T07:19:17;13.10;55.10
38910;DHT22;24676;51.360;12.354;2023-04-28T07:22:01;13.10;55.00
38910;DHT22;24676;51.360;12.354;2023-04-28T07:24:45;13.00;54.90
38910;DHT22;24676;51.360;12.354;2023-04-28T07:27:29;12.90;55.20
38910;DHT22;24676;51.360;12.354;2023-04-28T07:30:13;13.00;55.60
38910;DHT22;24676;51.360;12.354;2023-04-28T07:32:58;13.30;55.20
38910;DHT22;24676;51.360;12.354;2023-04-28T07:35:42;13.70;54.40
38910;DHT22;24676;51.360;12.354;2023-04-28T07:38:26;14.00;53.90
38910;DHT22;24676;51.360;12.354;2023-04-28T07:41:11;14.30;53.10
38910;DHT22;24676;51.360;12.354;2023-04-28T07:43:55;14.70;53.00
38910;DHT22;24676;51.360;12.354;2023-04-28T07:46:39;15.10;51.80
38910;DHT22;24676;51.360;12.354;2023-04-28T07:49:24;15.50;50.80
38910;DHT22;24676;51.360;12.354;2023-04-28T07:52:08;15.80;50.00
38910;DHT22;24676;51.360;12.354;2023-04-28T07:54:53;16.20;49.80
38910;DHT22;24676;51.360;12.354;2023-04-28T07:57:37;17.20;48.50
38910;DHT22;24676;51.360;12.354;2023-04-28T08:00:21;18.50;44.90
38910;DHT22;24676;51.360;12.354;2023-04-28T08:03:05;18.90;44.20
38910;DHT22;24676;51.360;12.354;2023-04-28T08:05:50;19.40;42.30
38910;DHT22;24676;51.360;12.354;2023-04-28T08:08:34;18.70;43.30
38910;DHT22;24676;51.360;12.354;2023-04-28T08:11:18;18.40;43.90
38910;DHT22;24676;51.360;12.354;2023-04-28T08:14:02;18.10;43.70
38910;DHT22;24676;51.360;12.354;2023-04-28T08:16:47;17.60;44.60
38910;DHT22;24676;51.360;12.354;2023-04-28T08:19:31;17.40;45.40
38910;DHT22;24676;51.360;12.354;2023-04-28T08:22:16;17.10;45.80
38910;DHT22;24676;51.360;12.354;2023-04-28T08:25:00;16.80;46.40
38910;DHT22;24676;51.360;12.354;2023-04-28T08:27:45;16.40;47.50
38910;DHT22;24676;51.360;12.354;2023-04-28T08:30:29;16.10;48.40
38910;DHT22;24676;51.360;12.354;2023-04-28T08:33:13;15.80;49.00
38910;DHT22;24676;51.360;12.354;2023-04-28T08:35:57;15.60;50.30
38910;DHT22;24676;51.360;12.354;2023-04-28T08:38:43;15.30;50.50
38910;DHT22;24676;51.360;12.354;2023-04-28T08:41:27;15.20;51.30
38910;DHT22;24676;51.360;12.354;2023-04-28T08:44:15;15.10;52.10
38910;DHT22;24676;51.360;12.354;2023-04-28T08:47:01;15.10;51.90
38910;DHT22;24676;51.360;12.354;2023-04-28T08:49:47;15.10;52.00
38910;DHT22;24676;51.360;12.354;2023-04-28T08:52:33;14.90;52.80
38910;DHT22;24676;51.360;12.354;2023-04-28T08:55:17;14.80;54.40
38910;DHT22;24676;51.360;12.354;2023-04-28T08:58:02;14.30;56.10
38910;DHT22;24676;51.360;12.354;2023-04-28T09:00:47;13.90;58.10
38910;DHT22;24676;51.360;12.354;2023-04-28T09:03:31;13.70;59.60
38910;DHT22;24676;51.360;12.354;2023-04-28T09:06:16;13.70;63.80
38910;DHT22;24676;51.360;12.354;2023-04-28T09:12:06;13.80;67.60
38910;DHT22;24676;51.360;12.354;2023-04-28T09:14:57;13.70;65.10
38910;DHT22;24676;51.360;12.354;2023-04-28T09:17:51;13.70;67.60
38910;DHT22;24676;51.360;12.354;2023-04-28T09:20:35;13.50;71.80
38910;DHT22;24676;51.360;12.354;2023-04-28T09:23:20;13.20;81.50
38910;DHT22;24676;51.360;12.354;2023-04-28T09:26:06;13.10;93.30
38910;DHT22;24676;51.360;12.354;2023-04-28T09:28:50;12.90;95.70
38910;DHT22;24676;51.360;12.354;2023-04-28T09:31:35;12.80;99.90
38910;DHT22;24676;51.360;12.354;2023-04-28T09:34:23;12.60;99.90
38910;DHT22;24676;51.360;12.354;2023-04-28T09:37:34;12.70;99.90
38910;DHT22;24676;51.360;12.354;2023-04-28T09:40:19;12.80;99.90
38910;DHT22;24676;51.360;12.354;2023-04-28T09:43:03;12.80;99.90
38910;DHT22;24676;51.360;12.354;2023-04-28T09:45:47;12.80;99.90
38910;DHT22;24676;51.360;12.354;2023-04-28T09:48:36;12.50;99.90
38910;DHT22;24676;51.360;12.354;2023-04-28T09:51:24;12.20;99.90
38910;DHT22;24676;51.360;12.354;2023-04-28T09:54:10;12.00;99.90
38910;DHT22;24676;51.360;12.354;2023-04-28T09:56:55;11.80;99.90
38910;DHT22;24676;51.360;12.354;2023-04-28T09:59:40;11.90;99.90
38910;DHT22;24676;51.360;12.354;2023-04-28T10:02:26;12.10;99.90
38910;DHT22;24676;51.360;12.354;2023-04-28T10:05:11;12.40;99.90
38910;DHT22;24676;51.360;12.354;2023-04-28T10:07:55;12.70;99.90
38910;DHT22;24676;51.360;12.354;2023-04-28T10:10:40;12.60;99.90
38910;DHT22;24676;51.360;12.354;2023-04-28T10:13:25;12.50;99.90
38910;DHT22;24676;51.360;12.354;2023-04-28T10:16:09;12.40;99.90
38910;DHT22;24676;51.360;12.354;2023-04-28T10:18:55;12.20;99.90
38910;DHT22;24676;51.360;12.354;2023-04-28T10:25:07;12.10;99.90
38910;DHT22;24676;51.360;12.354;2023-04-28T10:27:55;12.00;99.90
38910;DHT22;24676;51.360;12.354;2023-04-28T10:30:41;12.10;99.90
38910;DHT22;24676;51.360;12.354;2023-04-28T10:33:24;12.10;99.90
38910;DHT22;24676;51.360;12.354;2023-04-28T10:36:09;12.30;99.90
38910;DHT22;24676;51.360;12.354;2023-04-28T10:39:14;12.50;99.90
38910;DHT22;24676;51.360;12.354;2023-04-28T10:41:58;13.00;99.90
38910;DHT22;24676;51.360;12.354;2023-04-28T10:44:42;13.10;99.90
38910;DHT22;24676;51.360;12.354;2023-04-28T10:47:27;12.90;99.90
38910;DHT22;24676;51.360;12.354;2023-04-28T10:50:11;13.00;99.90
38910;DHT22;24676;51.360;12.354;2023-04-28T10:52:56;13.00;99.90
38910;DHT22;24676;51.360;12.354;2023-04-28T10:55:40;13.00;99.90
38910;DHT22;24676;51.360;12.354;2023-04-28T11:04:05;12.40;99.90
38910;DHT22;24676;51.360;12.354;2023-04-28T11:07:10;12.10;99.90
38910;DHT22;24676;51.360;12.354;2023-04-28T11:09:56;11.90;99.90
38910;DHT22;24676;51.360;12.354;2023-04-28T11:15:47;11.70;99.90
38910;DHT22;24676;51.360;12.354;2023-04-28T11:21:38;11.60;99.90
38910;DHT22;24676;51.360;12.354;2023-04-28T11:24:23;11.60;99.90
38910;DHT22;24676;51.360;12.354;2023-04-28T11:27:22;11.60;99.90
38910;DHT22;24676;51.360;12.354;2023-04-28T11:30:20;11.80;99.90
38910;DHT22;24676;51.360;12.354;2023-04-28T11:33:06;11.90;99.90
38910;DHT22;24676;51.360;12.354;2023-04-28T11:35:50;12.00;99.90
38910;DHT22;24676;51.360;12.354;2023-04-28T11:38:44;12.00;99.90
38910;DHT22;24676;51.360;12.354;2023-04-28T11:41:30;12.00;99.90
38910;DHT22;24676;51.360;12.354;2023-04-28T11:44:16;12.10;99.90
38910;DHT22;24676;51.360;12.354;2023-04-28T11:47:02;12.10;99.90
38910;DHT22;24676;51.360;12.354;2023-04-28T11:49:46;12.20;99.90
38910;DHT22;24676;51.360;12.354;2023-04-28T11:52:32;12.30;99.90
38910;DHT22;24676;51.360;12.354;2023-04-28T11:55:16;12.40;99.90
38910;DHT22;24676;51.360;12.354;2023-04-28T11:58:20;12.50;99.90
38910;DHT22;24676;51.360;12.354;2023-04-28T12:01:11;12.60;99.90
38910;DHT22;24676;51.360;12.354;2023-04-28T12:03:56;12.70;99.90
38910;DHT22;24676;51.360;12.354;2023-04-28T12:06:40;13.00;99.90
38910;DHT22;24676;51.360;12.354;2023-04-28T12:09:24;13.40;99.90
38910;DHT22;24676;51.360;12.354;2023-04-28T12:12:34;14.00;99.90
38910;DHT22;24676;51.360;12.354;2023-04-28T12:15:17;15.00;99.90
38910;DHT22;24676;51.360;12.354;2023-04-28T12:18:09;16.10;99.90
38910;DHT22;24676;51.360;12.354;2023-04-28T12:20:54;16.90;99.90
38910;DHT22;24676;51.360;12.354;2023-04-28T12:23:38;17.00;99.60
38910;DHT22;24676;51.360;12.354;2023-04-28T12:26:26;16.80;98.20
38910;DHT22;24676;51.360;12.354;2023-04-28T12:29:33;16.70;99.90
38910;DHT22;24676;51.360;12.354;2023-04-28T12:32:18;16.60;99.90
38910;DHT22;24676;51.360;12.354;2023-04-28T12:35:03;16.40;99.90
38910;DHT22;24676;51.360;12.354;2023-04-28T12:37:49;16.20;99.90
38910;DHT22;24676;51.360;12.354;2023-04-28T12:40:33;16.00;99.90
38910;DHT22;24676;51.360;12.354;2023-04-28T12:43:17;15.70;99.90
38910;DHT22;24676;51.360;12.354;2023-04-28T12:46:01;15.50;99.90
38910;DHT22;24676;51.360;12.354;2023-04-28T12:48:46;15.30;99.90
38910;DHT22;24676;51.360;12.354;2023-04-28T12:51:31;15.00;99.90
38910;DHT22;24676;51.360;12.354;2023-04-28T12:54:17;14.90;99.90
38910;DHT22;24676;51.360;12.354;2023-04-28T12:57:03;14.90;99.90
38910;DHT22;24676;51.360;12.354;2023-04-28T12:59:50;15.10;99.90
38910;DHT22;24676;51.360;12.354;2023-04-28T13:02:35;15.30;99.90
38910;DHT22;24676;51.360;12.354;2023-04-28T13:05:19;15.60;99.90
38910;DHT22;24676;51.360;12.354;2023-04-28T13:08:04;15.80;99.90
38910;DHT22;24676;51.360;12.354;2023-04-28T13:10:48;15.90;99.90
38910;DHT22;24676;51.360;12.354;2023-04-28T13:13:34;15.90;99.90
38910;DHT22;24676;51.360;12.354;2023-04-28T13:16:18;16.00;99.90
38910;DHT22;24676;51.360;12.354;2023-04-28T13:19:03;15.90;99.90
38910;DHT22;24676;51.360;12.354;2023-04-28T13:21:47;15.60;99.90
38910;DHT22;24676;51.360;12.354;2023-04-28T13:24:32;15.60;99.90
38910;DHT22;24676;51.360;12.354;2023-04-28T13:27:16;15.50;99.90
38910;DHT22;24676;51.360;12.354;2023-04-28T13:30:00;15.50;99.90
38910;DHT22;24676;51.360;12.354;2023-04-28T13:32:46;15.40;99.90
38910;DHT22;24676;51.360;12.354;2023-04-28T13:35:31;15.40;99.90
38910;DHT22;24676;51.360;12.354;2023-04-28T13:38:15;15.30;99.90
38910;DHT22;24676;51.360;12.354;2023-04-28T13:41:00;15.20;99.90
38910;DHT22;24676;51.360;12.354;2023-04-28T13:43:44;15.30;99.90
38910;DHT22;24676;51.360;12.354;2023-04-28T13:46:28;15.20;99.90
38910;DHT22;24676;51.360;12.354;2023-04-28T13:49:12;15.30;99.90
38910;DHT22;24676;51.360;12.354;2023-04-28T13:51:57;15.30;99.90
38910;DHT22;24676;51.360;12.354;2023-04-28T13:54:41;15.30;99.90
38910;DHT22;24676;51.360;12.354;2023-04-28T13:57:25;15.20;99.90
38910;DHT22;24676;51.360;12.354;2023-04-28T14:00:09;15.20;99.90
38910;DHT22;24676;51.360;12.354;2023-04-28T14:02:53;15.20;99.90
38910;DHT22;24676;51.360;12.354;2023-04-28T14:05:38;15.30;99.90
38910;DHT22;24676;51.360;12.354;2023-04-28T14:08:23;15.30;99.90
38910;DHT22;24676;51.360;12.354;2023-04-28T14:11:07;15.20;99.90
38910;DHT22;24676;51.360;12.354;2023-04-28T14:13:52;15.10;99.90
38910;DHT22;24676;51.360;12.354;2023-04-28T14:16:36;15.00;99.90
38910;DHT22;24676;51.360;12.354;2023-04-28T14:19:20;14.90;99.90
38910;DHT22;24676;51.360;12.354;2023-04-28T14:22:05;14.90;99.90
38910;DHT22;24676;51.360;12.354;2023-04-28T14:24:49;14.90;99.90
38910;DHT22;24676;51.360;12.354;2023-04-28T14:27:34;14.90;99.90
38910;DHT22;24676;51.360;12.354;2023-04-28T14:30:19;14.90;99.90
38910;DHT22;24676;51.360;12.354;2023-04-28T14:33:04;15.00;99.90
38910;DHT22;24676;51.360;12.354;2023-04-28T14:35:49;15.00;99.90
38910;DHT22;24676;51.360;12.354;2023-04-28T14:38:35;15.10;99.90
38910;DHT22;24676;51.360;12.354;2023-04-28T14:41:19;15.00;99.90
38910;DHT22;24676;51.360;12.354;2023-04-28T14:44:04;15.00;99.90
38910;DHT22;24676;51.360;12.354;2023-04-28T14:46:49;15.00;99.90
38910;DHT22;24676;51.360;12.354;2023-04-28T14:49:33;15.20;99.90
38910;DHT22;24676;51.360;12.354;2023-04-28T14:52:17;15.40;99.90
38910;DHT22;24676;51.360;12.354;2023-04-28T14:55:02;15.50;99.90
38910;DHT22;24676;51.360;12.354;2023-04-28T14:57:47;15.50;99.90
38910;DHT22;24676;51.360;12.354;2023-04-28T15:00:32;15.40;99.90
38910;DHT22;24676;51.360;12.354;2023-04-28T15:03:16;15.30;99.90
38910;DHT22;24676;51.360;12.354;2023-04-28T15:06:00;15.20;99.90
38910;DHT22;24676;51.360;12.354;2023-04-28T15:08:46;15.10;99.90
38910;DHT22;24676;51.360;12.354;2023-04-28T15:11:30;15.00;99.90
38910;DHT22;24676;51.360;12.354;2023-04-28T15:14:14;14.90;99.90
38910;DHT22;24676;51.360;12.354;2023-04-28T15:16:59;14.80;99.90
38910;DHT22;24676;51.360;12.354;2023-04-28T15:19:43;14.70;99.90
38910;DHT22;24676;51.360;12.354;2023-04-28T15:22:28;14.70;99.90
38910;DHT22;24676;51.360;12.354;2023-04-28T15:25:12;14.70;99.90
38910;DHT22;24676;51.360;12.354;2023-04-28T15:27:56;14.80;99.90
38910;DHT22;24676;51.360;12.354;2023-04-28T15:30:41;14.80;99.90
38910;DHT22;24676;51.360;12.354;2023-04-28T15:33:26;14.70;99.90
38910;DHT22;24676;51.360;12.354;2023-04-28T15:36:11;14.70;99.90
38910;DHT22;24676;51.360;12.354;2023-04-28T15:38:56;14.60;99.90
38910;DHT22;24676;51.360;12.354;2023-04-28T15:41:40;14.50;99.90
38910;DHT22;24676;51.360;12.354;2023-04-28T15:44:25;14.50;99.90
38910;DHT22;24676;51.360;12.354;2023-04-28T15:47:09;14.50;99.90
38910;DHT22;24676;51.360;12.354;2023-04-28T15:49:53;14.50;99.90
38910;DHT22;24676;51.360;12.354;2023-04-28T15:52:38;14.50;99.90
38910;DHT22;24676;51.360;12.354;2023-04-28T15:55:23;14.50;99.90
38910;DHT22;24676;51.360;12.354;2023-04-28T15:58:07;14.60;99.90
38910;DHT22;24676;51.360;12.354;2023-04-28T16:00:52;14.50;99.90
38910;DHT22;24676;51.360;12.354;2023-04-28T16:03:37;14.50;99.90
38910;DHT22;24676;51.360;12.354;2023-04-28T16:06:21;14.40;99.90
38910;DHT22;24676;51.360;12.354;2023-04-28T16:09:05;14.30;99.90
38910;DHT22;24676;51.360;12.354;2023-04-28T16:11:49;14.30;99.90
38910;DHT22;24676;51.360;12.354;2023-04-28T16:14:34;14.20;99.90
38910;DHT22;24676;51.360;12.354;2023-04-28T16:17:20;14.20;99.90
38910;DHT22;24676;51.360;12.354;2023-04-28T16:20:06;14.10;99.90
38910;DHT22;24676;51.360;12.354;2023-04-28T16:22:50;14.10;99.90
38910;DHT22;24676;51.360;12.354;2023-04-28T16:25:34;14.10;99.90
38910;DHT22;24676;51.360;12.354;2023-04-28T16:28:18;14.00;99.90
38910;DHT22;24676;51.360;12.354;2023-04-28T16:31:02;14.00;99.90
38910;DHT22;24676;51.360;12.354;2023-04-28T16:33:47;14.00;99.90
38910;DHT22;24676;51.360;12.354;2023-04-28T16:36:31;13.90;99.90
38910;DHT22;24676;51.360;12.354;2023-04-28T16:39:18;13.90;99.90
38910;DHT22;24676;51.360;12.354;2023-04-28T16:42:02;13.90;99.90
38910;DHT22;24676;51.360;12.354;2023-04-28T16:44:48;13.90;99.90
38910;DHT22;24676;51.360;12.354;2023-04-28T16:47:33;13.90;99.90
38910;DHT22;24676;51.360;12.354;2023-04-28T16:50:17;13.90;99.90
38910;DHT22;24676;51.360;12.354;2023-04-28T16:53:01;13.90;99.90
38910;DHT22;24676;51.360;12.354;2023-04-28T16:55:45;13.90;99.90
38910;DHT22;24676;51.360;12.354;2023-04-28T16:58:29;13.90;99.90
38910;DHT22;24676;51.360;12.354;2023-04-28T17:01:14;13.90;99.90
38910;DHT22;24676;51.360;12.354;2023-04-28T17:03:58;13.80;99.90
38910;DHT22;24676;51.360;12.354;2023-04-28T17:06:42;13.80;99.90
38910;DHT22;24676;51.360;12.354;2023-04-28T17:09:27;13.80;99.90
38910;DHT22;24676;51.360;12.354;2023-04-28T17:12:11;13.70;99.90
38910;DHT22;24676;51.360;12.354;2023-04-28T17:14:55;13.70;99.90
38910;DHT22;24676;51.360;12.354;2023-04-28T17:17:40;13.60;99.90
38910;DHT22;24676;51.360;12.354;2023-04-28T17:20:24;13.60;99.90
38910;DHT22;24676;51.360;12.354;2023-04-28T17:23:09;13.60;99.90
38910;DHT22;24676;51.360;12.354;2023-04-28T17:25:54;13.60;99.90
38910;DHT22;24676;51.360;12.354;2023-04-28T17:28:39;13.60;99.90